sensor_id;sensor_type;location;lat;lon;timestamp;temperature;humidity
37874;DHT22;23709;48.078;11.684;2023-07-20T00:01:20;21.40;83.20
37874;DHT22;23709;48.078;11.684;2023-07-20T00:03:52;21.40;83.10
37874;DHT22;23709;48.078;11.684;2023-07-20T00:06:27;21.30;81.70
37874;DHT22;23709;48.078;11.684;2023-07-20T00:09:04;21.30;82.50
37874;DHT22;23709;48.078;11.684;2023-07-20T00:11:38;21.40;82.40
37874;DHT22;23709;48.078;11.684;2023-07-20T00:14:10;21.40;81.50
37874;DHT22;23709;48.078;11.684;2023-07-20T00:16:42;21.40;81.10
37874;DHT22;23709;48.078;11.684;2023-07-20T00:19:15;21.30;80.60
37874;DHT22;23709;48.078;11.684;2023-07-20T00:21:52;21.30;80.10
37874;DHT22;23709;48.078;11.684;2023-07-20T00:24:25;21.30;79.70
37874;DHT22;23709;48.078;11.684;2023-07-20T00:26:57;21.30;79.80
37874;DHT22;23709;48.078;11.684;2023-07-20T00:29:30;21.30;79.50
37874;DHT22;23709;48.078;11.684;2023-07-20T00:32:02;21.30;79.80
37874;DHT22;23709;48.078;11.684;2023-07-20T00:34:40;21.40;80.50
37874;DHT22;23709;48.078;11.684;2023-07-20T00:37:13;21.40;80.80
37874;DHT22;23709;48.078;11.684;2023-07-20T00:39:45;21.30;81.00
37874;DHT22;23709;48.078;11.684;2023-07-20T00:42:18;21.30;80.50
37874;DHT22;23709;48.078;11.684;2023-07-20T00:44:50;21.30;81.60
37874;DHT22;23709;48.078;11.684;2023-07-20T00:47:22;21.20;81.90
37874;DHT22;23709;48.078;11.684;2023-07-20T00:49:54;21.20;82.00
37874;DHT22;23709;48.078;11.684;2023-07-20T00:52:28;21.10;82.60
37874;DHT22;23709;48.078;11.684;2023-07-20T00:55:02;21.10;82.40
37874;DHT22;23709;48.078;11.684;2023-07-20T00:57:36;21.10;83.40
37874;DHT22;23709;48.078;11.684;2023-07-20T01:00:11;21.10;84.40
37874;DHT22;23709;48.078;11.684;2023-07-20T01:02:43;21.10;84.40
37874;DHT22;23709;48.078;11.684;2023-07-20T01:05:17;21.10;84.60
37874;DHT22;23709;48.078;11.684;2023-07-20T01:08:56;21.10;83.70
37874;DHT22;23709;48.078;11.684;2023-07-20T01:10:54;21.00;83.80
37874;DHT22;23709;48.078;11.684;2023-07-20T01:13:29;21.00;84.90
37874;DHT22;23709;48.078;11.684;2023-07-20T01:16:02;20.90;91.10
37874;DHT22;23709;48.078;11.684;2023-07-20T01:18:34;20.90;86.80
37874;DHT22;23709;48.078;11.684;2023-07-20T01:21:08;20.90;86.90
37874;DHT22;23709;48.078;11.684;2023-07-20T01:24:05;21.00;86.70
37874;DHT22;23709;48.078;11.684;2023-07-20T01:27:06;20.90;89.30
37874;DHT22;23709;48.078;11.684;2023-07-20T01:32:35;20.70;90.60
37874;DHT22;23709;48.078;11.684;2023-07-20T01:35:11;20.60;90.20
37874;DHT22;23709;48.078;11.684;2023-07-20T01:37:46;20.50;91.00
37874;DHT22;23709;48.078;11.684;2023-07-20T01:40:19;20.60;90.30
37874;DHT22;23709;48.078;11.684;2023-07-20T01:42:53;20.70;89.90
37874;DHT22;23709;48.078;11.684;2023-07-20T01:45:25;20.70;89.40
37874;DHT22;23709;48.078;11.684;2023-07-20T01:48:01;20.60;89.50
37874;DHT22;23709;48.078;11.684;2023-07-20T01:50:34;20.60;89.70
37874;DHT22;23709;48.078;11.684;2023-07-20T01:53:06;20.50;90.10
37874;DHT22;23709;48.078;11.684;2023-07-20T01:55:38;20.60;90.30
37874;DHT22;23709;48.078;11.684;2023-07-20T01:58:11;20.40;89.70
37874;DHT22;23709;48.078;11.684;2023-07-20T02:00:44;20.50;89.70
37874;DHT22;23709;48.078;11.684;2023-07-20T02:03:16;20.30;90.00
37874;DHT22;23709;48.078;11.684;2023-07-20T02:05:51;20.30;90.20
37874;DHT22;23709;48.078;11.684;2023-07-20T02:08:24;20.30;90.10
37874;DHT22;23709;48.078;11.684;2023-07-20T02:11:01;20.30;90.10
37874;DHT22;23709;48.078;11.684;2023-07-20T02:13:37;20.30;90.30
37874;DHT22;23709;48.078;11.684;2023-07-20T02:16:09;20.30;90.40
37874;DHT22;23709;48.078;11.684;2023-07-20T02:18:43;20.30;90.40
37874;DHT22;23709;48.078;11.684;2023-07-20T02:21:16;20.30;90.30
37874;DHT22;23709;48.078;11.684;2023-07-20T02:23:48;20.20;90.40
37874;DHT22;23709;48.078;11.684;2023-07-20T02:26:22;20.20;90.70
37874;DHT22;23709;48.078;11.684;2023-07-20T02:28:56;20.10;90.60
37874;DHT22;23709;48.078;11.684;2023-07-20T02:31:30;20.20;90.60
37874;DHT22;23709;48.078;11.684;2023-07-20T02:34:03;20.40;90.20
37874;DHT22;23709;48.078;11.684;2023-07-20T02:36:35;20.30;90.30
37874;DHT22;23709;48.078;11.684;2023-07-20T02:39:09;20.40;90.40
37874;DHT22;23709;48.078;11.684;2023-07-20T02:41:43;20.30;90.70
37874;DHT22;23709;48.078;11.684;2023-07-20T02:44:19;20.20;90.40
37874;DHT22;23709;48.078;11.684;2023-07-20T02:46:56;20.20;90.30
37874;DHT22;23709;48.078;11.684;2023-07-20T02:49:29;20.20;90.70
37874;DHT22;23709;48.078;11.684;2023-07-20T02:52:02;20.20;90.30
37874;DHT22;23709;48.078;11.684;2023-07-20T02:54:34;20.20;90.30
37874;DHT22;23709;48.078;11.684;2023-07-20T02:57:06;20.10;90.10
37874;DHT22;23709;48.078;11.684;2023-07-20T02:59:38;20.20;90.00
37874;DHT22;23709;48.078;11.684;2023-07-20T03:02:11;20.10;89.60
37874;DHT22;23709;48.078;11.684;2023-07-20T03:04:43;20.10;90.00
37874;DHT22;23709;48.078;11.684;2023-07-20T03:07:15;20.00;90.00
37874;DHT22;23709;48.078;11.684;2023-07-20T03:09:52;19.90;91.60
37874;DHT22;23709;48.078;11.684;2023-07-20T03:12:24;19.70;93.50
37874;DHT22;23709;48.078;11.684;2023-07-20T03:14:58;19.60;94.50
37874;DHT22;23709;48.078;11.684;2023-07-20T03:17:30;19.30;95.50
37874;DHT22;23709;48.078;11.684;2023-07-20T03:20:03;18.90;97.00
37874;DHT22;23709;48.078;11.684;2023-07-20T03:22:41;18.70;97.60
37874;DHT22;23709;48.078;11.684;2023-07-20T03:25:13;18.40;98.80
37874;DHT22;23709;48.078;11.684;2023-07-20T03:27:46;18.40;99.80
37874;DHT22;23709;48.078;11.684;2023-07-20T03:30:18;18.40;99.90
37874;DHT22;23709;48.078;11.684;2023-07-20T03:32:50;18.30;99.90
37874;DHT22;23709;48.078;11.684;2023-07-20T03:35:23;18.10;99.90
37874;DHT22;23709;48.078;11.684;2023-07-20T03:37:55;18.00;99.90
37874;DHT22;23709;48.078;11.684;2023-07-20T03:40:29;18.00;99.90
37874;DHT22;23709;48.078;11.684;2023-07-20T03:43:02;17.90;99.90
37874;DHT22;23709;48.078;11.684;2023-07-20T03:45:37;18.00;99.90
37874;DHT22;23709;48.078;11.684;2023-07-20T03:48:09;17.90;99.90
37874;DHT22;23709;48.078;11.684;2023-07-20T03:50:47;17.70;99.90
37874;DHT22;23709;48.078;11.684;2023-07-20T03:53:21;17.70;99.90
37874;DHT22;23709;48.078;11.684;2023-07-20T03:55:53;17.60;99.90
37874;DHT22;23709;48.078;11.684;2023-07-20T03:58:26;17.50;99.90
37874;DHT22;23709;48.078;11.684;2023-07-20T04:00:58;17.40;99.90
37874;DHT22;23709;48.078;11.684;2023-07-20T04:03:31;17.50;99.90
37874;DHT22;23709;48.078;11.684;2023-07-20T04:06:04;17.60;99.90
37874;DHT22;23709;48.078;11.684;2023-07-20T04:08:36;17.70;99.90
37874;DHT22;23709;48.078;11.684;2023-07-20T04:11:12;17.70;99.90
37874;DHT22;23709;48.078;11.684;2023-07-20T04:13:45;17.70;99.90
37874;DHT22;23709;48.078;11.684;2023-07-20T04:16:18;17.70;99.90
37874;DHT22;23709;48.078;11.684;2023-07-20T04:18:56;17.70;99.90
37874;DHT22;23709;48.078;11.684;2023-07-20T04:21:29;17.80;99.90
37874;DHT22;23709;48.078;11.684;2023-07-20T04:24:02;17.70;99.90
37874;DHT22;23709;48.078;11.684;2023-07-20T04:26:34;17.70;99.90
37874;DHT22;23709;48.078;11.684;2023-07-20T04:29:07;17.80;99.90
37874;DHT22;23709;48.078;11.684;2023-07-20T04:31:45;17.70;99.90
37874;DHT22;23709;48.078;11.684;2023-07-20T04:34:18;17.70;99.90
37874;DHT22;23709;48.078;11.684;2023-07-20T04:36:51;17.60;99.90
37874;DHT22;23709;48.078;11.684;2023-07-20T04:39:23;17.60;99.90
37874;DHT22;23709;48.078;11.684;2023-07-20T04:42:08;17.80;99.90
37874;DHT22;23709;48.078;11.684;2023-07-20T04:44:40;17.80;99.90
37874;DHT22;23709;48.078;11.684;2023-07-20T04:47:14;17.80;99.90
37874;DHT22;23709;48.078;11.684;2023-07-20T04:49:48;17.70;99.90
37874;DHT22;23709;48.078;11.684;2023-07-20T04:52:21;17.80;99.90
37874;DHT22;23709;48.078;11.684;2023-07-20T04:55:08;17.70;99.90
37874;DHT22;23709;48.078;11.684;2023-07-20T04:57:42;17.80;99.90
37874;DHT22;23709;48.078;11.684;2023-07-20T05:00:16;17.80;99.90
37874;DHT22;23709;48.078;11.684;2023-07-20T05:02:49;17.80;99.90
37874;DHT22;23709;48.078;11.684;2023-07-20T05:05:23;17.80;99.90
37874;DHT22;23709;48.078;11.684;2023-07-20T05:07:55;17.80;99.90
37874;DHT22;23709;48.078;11.684;2023-07-20T05:10:27;18.00;99.90
37874;DHT22;23709;48.078;11.684;2023-07-20T05:13:04;17.90;99.90
37874;DHT22;23709;48.078;11.684;2023-07-20T05:15:37;17.90;99.90
37874;DHT22;23709;48.078;11.684;2023-07-20T05:18:13;17.80;99.90
37874;DHT22;23709;48.078;11.684;2023-07-20T05:20:53;17.80;99.90
37874;DHT22;23709;48.078;11.684;2023-07-20T05:23:28;17.80;99.90
37874;DHT22;23709;48.078;11.684;2023-07-20T05:26:01;17.80;99.90
37874;DHT22;23709;48.078;11.684;2023-07-20T05:28:34;17.80;99.90
37874;DHT22;23709;48.078;11.684;2023-07-20T05:31:07;17.80;99.90
37874;DHT22;23709;48.078;11.684;2023-07-20T05:33:39;17.80;99.90
37874;DHT22;23709;48.078;11.684;2023-07-20T05:36:11;17.90;99.90
37874;DHT22;23709;48.078;11.684;2023-07-20T05:38:43;17.90;99.90
37874;DHT22;23709;48.078;11.684;2023-07-20T05:41:16;18.00;99.90
37874;DHT22;23709;48.078;11.684;2023-07-20T05:43:48;18.10;99.90
37874;DHT22;23709;48.078;11.684;2023-07-20T05:46:20;18.00;99.90
37874;DHT22;23709;48.078;11.684;2023-07-20T05:48:53;18.00;99.90
37874;DHT22;23709;48.078;11.684;2023-07-20T05:51:25;18.00;99.90
37874;DHT22;23709;48.078;11.684;2023-07-20T05:53:57;18.00;99.90
37874;DHT22;23709;48.078;11.684;2023-07-20T05:56:30;18.20;99.90
37874;DHT22;23709;48.078;11.684;2023-07-20T05:59:02;18.10;99.90
37874;DHT22;23709;48.078;11.684;2023-07-20T06:01:34;18.20;99.90
37874;DHT22;23709;48.078;11.684;2023-07-20T06:04:06;18.20;99.90
37874;DHT22;23709;48.078;11.684;2023-07-20T06:06:40;18.30;99.90
37874;DHT22;23709;48.078;11.684;2023-07-20T06:09:23;18.40;99.90
37874;DHT22;23709;48.078;11.684;2023-07-20T06:11:55;18.40;99.90
37874;DHT22;23709;48.078;11.684;2023-07-20T06:14:28;18.30;99.90
37874;DHT22;23709;48.078;11.684;2023-07-20T06:17:00;18.40;99.90
37874;DHT22;23709;48.078;11.684;2023-07-20T06:19:32;18.50;99.90
37874;DHT22;23709;48.078;11.684;2023-07-20T06:22:05;18.50;99.90
37874;DHT22;23709;48.078;11.684;2023-07-20T06:24:37;18.50;99.90
37874;DHT22;23709;48.078;11.684;2023-07-20T06:27:10;18.50;99.90
37874;DHT22;23709;48.078;11.684;2023-07-20T06:29:42;18.60;99.90
37874;DHT22;23709;48.078;11.684;2023-07-20T06:32:14;18.60;99.90
37874;DHT22;23709;48.078;11.684;2023-07-20T06:34:46;18.60;99.90
37874;DHT22;23709;48.078;11.684;2023-07-20T06:37:19;18.70;99.90
37874;DHT22;23709;48.078;11.684;2023-07-20T06:39:52;18.80;99.90
37874;DHT22;23709;48.078;11.684;2023-07-20T06:42:27;18.80;99.90
37874;DHT22;23709;48.078;11.684;2023-07-20T06:45:20;18.80;99.90
37874;DHT22;23709;48.078;11.684;2023-07-20T06:47:52;18.80;99.90
37874;DHT22;23709;48.078;11.684;2023-07-20T06:50:24;18.70;99.90
37874;DHT22;23709;48.078;11.684;2023-07-20T06:52:58;18.80;99.90
37874;DHT22;23709;48.078;11.684;2023-07-20T06:55:31;18.80;99.90
37874;DHT22;23709;48.078;11.684;2023-07-20T06:58:12;18.90;99.90
37874;DHT22;23709;48.078;11.684;2023-07-20T07:00:45;18.90;99.90
37874;DHT22;23709;48.078;11.684;2023-07-20T07:03:17;18.90;99.90
37874;DHT22;23709;48.078;11.684;2023-07-20T07:05:50;18.90;99.90
37874;DHT22;23709;48.078;11.684;2023-07-20T07:08:22;19.10;99.90
37874;DHT22;23709;48.078;11.684;2023-07-20T07:10:54;19.30;99.90
37874;DHT22;23709;48.078;11.684;2023-07-20T07:13:27;19.40;99.90
37874;DHT22;23709;48.078;11.684;2023-07-20T07:15:59;19.50;99.90
37874;DHT22;23709;48.078;11.684;2023-07-20T07:18:31;19.50;99.90
37874;DHT22;23709;48.078;11.684;2023-07-20T07:21:03;19.40;99.90
37874;DHT22;23709;48.078;11.684;2023-07-20T07:23:35;19.60;99.90
37874;DHT22;23709;48.078;11.684;2023-07-20T07:26:07;19.60;99.90
37874;DHT22;23709;48.078;11.684;2023-07-20T07:28:39;19.70;99.90
37874;DHT22;23709;48.078;11.684;2023-07-20T07:31:14;19.70;99.90
37874;DHT22;23709;48.078;11.684;2023-07-20T07:33:46;19.80;99.90
37874;DHT22;23709;48.078;11.684;2023-07-20T07:36:19;19.80;99.90
37874;DHT22;23709;48.078;11.684;2023-07-20T07:38:52;19.90;99.90
37874;DHT22;23709;48.078;11.684;2023-07-20T07:41:27;20.10;99.90
37874;DHT22;23709;48.078;11.684;2023-07-20T07:43:59;20.30;99.90
37874;DHT22;23709;48.078;11.684;2023-07-20T07:46:31;20.50;99.40
37874;DHT22;23709;48.078;11.684;2023-07-20T07:49:04;20.60;99.90
37874;DHT22;23709;48.078;11.684;2023-07-20T07:51:36;20.60;98.80
37874;DHT22;23709;48.078;11.684;2023-07-20T07:54:08;20.60;99.40
37874;DHT22;23709;48.078;11.684;2023-07-20T07:56:40;20.60;99.50
37874;DHT22;23709;48.078;11.684;2023-07-20T07:59:13;20.60;99.90
37874;DHT22;23709;48.078;11.684;2023-07-20T08:01:45;20.70;99.90
37874;DHT22;23709;48.078;11.684;2023-07-20T08:04:17;20.80;99.90
37874;DHT22;23709;48.078;11.684;2023-07-20T08:06:50;20.70;99.90
37874;DHT22;23709;48.078;11.684;2023-07-20T08:09:23;20.70;99.90
37874;DHT22;23709;48.078;11.684;2023-07-20T08:11:55;20.80;99.90
37874;DHT22;23709;48.078;11.684;2023-07-20T08:14:27;20.70;99.90
37874;DHT22;23709;48.078;11.684;2023-07-20T08:16:59;20.70;99.90
37874;DHT22;23709;48.078;11.684;2023-07-20T08:19:32;20.80;99.90
37874;DHT22;23709;48.078;11.684;2023-07-20T08:22:04;20.80;99.80
37874;DHT22;23709;48.078;11.684;2023-07-20T08:24:39;20.80;99.80
37874;DHT22;23709;48.078;11.684;2023-07-20T08:27:11;21.00;99.70
37874;DHT22;23709;48.078;11.684;2023-07-20T08:29:43;21.20;98.90
37874;DHT22;23709;48.078;11.684;2023-07-20T08:32:16;21.30;98.30
37874;DHT22;23709;48.078;11.684;2023-07-20T08:34:48;21.40;98.50
37874;DHT22;23709;48.078;11.684;2023-07-20T08:37:20;21.50;98.30
37874;DHT22;23709;48.078;11.684;2023-07-20T08:39:52;21.50;98.00
37874;DHT22;23709;48.078;11.684;2023-07-20T08:42:25;21.60;95.50
37874;DHT22;23709;48.078;11.684;2023-07-20T08:44:57;21.60;96.20
37874;DHT22;23709;48.078;11.684;2023-07-20T08:47:29;21.70;94.80
37874;DHT22;23709;48.078;11.684;2023-07-20T08:50:01;21.70;94.80
37874;DHT22;23709;48.078;11.684;2023-07-20T08:52:34;22.00;95.40
37874;DHT22;23709;48.078;11.684;2023-07-20T08:55:06;22.20;94.00
37874;DHT22;23709;48.078;11.684;2023-07-20T08:57:39;22.10;92.60
37874;DHT22;23709;48.078;11.684;2023-07-20T09:00:13;22.20;91.90
37874;DHT22;23709;48.078;11.684;2023-07-20T09:02:46;22.30;90.80
37874;DHT22;23709;48.078;11.684;2023-07-20T09:05:20;22.50;91.10
37874;DHT22;23709;48.078;11.684;2023-07-20T09:07:53;22.50;90.10
37874;DHT22;23709;48.078;11.684;2023-07-20T09:10:25;22.40;91.00
37874;DHT22;23709;48.078;11.684;2023-07-20T09:12:57;22.40;87.70
37874;DHT22;23709;48.078;11.684;2023-07-20T09:15:30;22.40;89.70
37874;DHT22;23709;48.078;11.684;2023-07-20T09:18:03;22.20;89.10
37874;DHT22;23709;48.078;11.684;2023-07-20T09:20:35;22.20;90.50
37874;DHT22;23709;48.078;11.684;2023-07-20T09:23:08;22.30;87.00
37874;DHT22;23709;48.078;11.684;2023-07-20T09:25:40;22.20;87.30
37874;DHT22;23709;48.078;11.684;2023-07-20T09:28:12;22.30;87.80
37874;DHT22;23709;48.078;11.684;2023-07-20T09:30:45;22.30;87.20
37874;DHT22;23709;48.078;11.684;2023-07-20T09:33:24;22.30;87.40
37874;DHT22;23709;48.078;11.684;2023-07-20T09:36:02;22.40;84.80
37874;DHT22;23709;48.078;11.684;2023-07-20T09:38:55;22.50;83.90
37874;DHT22;23709;48.078;11.684;2023-07-20T09:41:30;22.40;84.20
37874;DHT22;23709;48.078;11.684;2023-07-20T09:44:15;22.40;84.70
37874;DHT22;23709;48.078;11.684;2023-07-20T09:46:50;22.70;84.30
37874;DHT22;23709;48.078;11.684;2023-07-20T09:49:26;22.90;82.70
37874;DHT22;23709;48.078;11.684;2023-07-20T09:52:01;23.00;82.20
37874;DHT22;23709;48.078;11.684;2023-07-20T09:54:35;23.00;80.80
37874;DHT22;23709;48.078;11.684;2023-07-20T09:57:08;23.20;82.10
37874;DHT22;23709;48.078;11.684;2023-07-20T09:59:44;23.30;81.90
37874;DHT22;23709;48.078;11.684;2023-07-20T10:02:20;23.40;81.30
37874;DHT22;23709;48.078;11.684;2023-07-20T10:04:52;23.30;79.20
37874;DHT22;23709;48.078;11.684;2023-07-20T10:07:25;23.30;81.20
37874;DHT22;23709;48.078;11.684;2023-07-20T10:09:59;23.50;81.20
37874;DHT22;23709;48.078;11.684;2023-07-20T10:12:34;23.60;79.50
37874;DHT22;23709;48.078;11.684;2023-07-20T10:15:10;23.50;77.00
37874;DHT22;23709;48.078;11.684;2023-07-20T10:17:46;23.30;77.80
37874;DHT22;23709;48.078;11.684;2023-07-20T10:20:21;23.50;77.60
37874;DHT22;23709;48.078;11.684;2023-07-20T10:22:54;23.90;79.70
37874;DHT22;23709;48.078;11.684;2023-07-20T10:25:28;23.90;75.60
37874;DHT22;23709;48.078;11.684;2023-07-20T10:28:01;23.90;75.60
37874;DHT22;23709;48.078;11.684;2023-07-20T10:30:34;24.30;75.00
37874;DHT22;23709;48.078;11.684;2023-07-20T10:33:06;25.20;74.30
37874;DHT22;23709;48.078;11.684;2023-07-20T10:35:57;25.10;75.70
37874;DHT22;23709;48.078;11.684;2023-07-20T10:41:21;24.10;74.20
37874;DHT22;23709;48.078;11.684;2023-07-20T10:44:07;24.00;75.40
37874;DHT22;23709;48.078;11.684;2023-07-20T10:49:13;25.40;74.80
37874;DHT22;23709;48.078;11.684;2023-07-20T10:51:55;25.80;72.50
37874;DHT22;23709;48.078;11.684;2023-07-20T11:02:08;26.00;71.20
37874;DHT22;23709;48.078;11.684;2023-07-20T11:04:41;26.30;71.70
37874;DHT22;23709;48.078;11.684;2023-07-20T11:07:20;26.40;71.90
37874;DHT22;23709;48.078;11.684;2023-07-20T11:10:12;26.00;68.80
37874;DHT22;23709;48.078;11.684;2023-07-20T11:15:46;26.00;70.80
37874;DHT22;23709;48.078;11.684;2023-07-20T11:18:20;26.30;70.80
37874;DHT22;23709;48.078;11.684;2023-07-20T11:20:52;26.50;72.10
37874;DHT22;23709;48.078;11.684;2023-07-20T11:23:25;26.10;69.80
37874;DHT22;23709;48.078;11.684;2023-07-20T11:25:57;25.80;68.90
37874;DHT22;23709;48.078;11.684;2023-07-20T11:28:31;25.70;70.30
37874;DHT22;23709;48.078;11.684;2023-07-20T11:31:03;25.50;70.00
37874;DHT22;23709;48.078;11.684;2023-07-20T11:33:36;25.20;69.60
37874;DHT22;23709;48.078;11.684;2023-07-20T11:36:08;24.90;69.80
37874;DHT22;23709;48.078;11.684;2023-07-20T11:38:43;24.70;70.50
37874;DHT22;23709;48.078;11.684;2023-07-20T11:41:17;24.80;72.40
37874;DHT22;23709;48.078;11.684;2023-07-20T11:43:50;25.10;70.40
37874;DHT22;23709;48.078;11.684;2023-07-20T11:46:22;25.70;70.80
37874;DHT22;23709;48.078;11.684;2023-07-20T11:48:58;25.60;67.80
37874;DHT22;23709;48.078;11.684;2023-07-20T11:51:31;25.00;70.20
37874;DHT22;23709;48.078;11.684;2023-07-20T11:54:05;25.20;70.20
37874;DHT22;23709;48.078;11.684;2023-07-20T11:56:41;25.60;71.00
37874;DHT22;23709;48.078;11.684;2023-07-20T11:59:13;25.70;69.90
37874;DHT22;23709;48.078;11.684;2023-07-20T12:01:45;25.90;70.30
37874;DHT22;23709;48.078;11.684;2023-07-20T12:04:17;26.50;71.10
37874;DHT22;23709;48.078;11.684;2023-07-20T12:06:49;26.70;68.10
37874;DHT22;23709;48.078;11.684;2023-07-20T12:09:22;26.80;68.30
37874;DHT22;23709;48.078;11.684;2023-07-20T12:11:57;26.90;64.30
37874;DHT22;23709;48.078;11.684;2023-07-20T12:14:29;27.00;66.30
37874;DHT22;23709;48.078;11.684;2023-07-20T12:17:01;27.00;66.50
37874;DHT22;23709;48.078;11.684;2023-07-20T12:19:37;27.50;66.60
37874;DHT22;23709;48.078;11.684;2023-07-20T12:22:09;27.70;62.70
37874;DHT22;23709;48.078;11.684;2023-07-20T12:24:43;27.70;63.30
37874;DHT22;23709;48.078;11.684;2023-07-20T12:27:15;27.80;62.20
37874;DHT22;23709;48.078;11.684;2023-07-20T12:29:50;27.40;63.10
37874;DHT22;23709;48.078;11.684;2023-07-20T12:32:22;27.00;62.50
37874;DHT22;23709;48.078;11.684;2023-07-20T12:34:55;27.30;64.80
37874;DHT22;23709;48.078;11.684;2023-07-20T12:37:27;27.70;65.30
37874;DHT22;23709;48.078;11.684;2023-07-20T12:39:59;28.10;61.40
37874;DHT22;23709;48.078;11.684;2023-07-20T12:42:32;28.40;63.10
37874;DHT22;23709;48.078;11.684;2023-07-20T12:45:05;28.80;62.10
37874;DHT22;23709;48.078;11.684;2023-07-20T12:47:37;28.30;60.40
37874;DHT22;23709;48.078;11.684;2023-07-20T12:50:10;27.90;60.40
37874;DHT22;23709;48.078;11.684;2023-07-20T12:52:43;28.10;60.40
37874;DHT22;23709;48.078;11.684;2023-07-20T12:55:15;28.20;61.50
37874;DHT22;23709;48.078;11.684;2023-07-20T12:57:47;28.30;60.50
37874;DHT22;23709;48.078;11.684;2023-07-20T13:00:20;28.20;60.30
37874;DHT22;23709;48.078;11.684;2023-07-20T13:02:54;27.90;60.20
37874;DHT22;23709;48.078;11.684;2023-07-20T13:05:30;27.80;60.00
37874;DHT22;23709;48.078;11.684;2023-07-20T13:08:06;27.80;63.20
37874;DHT22;23709;48.078;11.684;2023-07-20T13:10:42;28.10;61.50
37874;DHT22;23709;48.078;11.684;2023-07-20T13:13:15;28.60;61.90
37874;DHT22;23709;48.078;11.684;2023-07-20T13:15:47;29.00;60.70
37874;DHT22;23709;48.078;11.684;2023-07-20T13:18:20;28.50;60.60
37874;DHT22;23709;48.078;11.684;2023-07-20T13:20:52;28.70;59.50
37874;DHT22;23709;48.078;11.684;2023-07-20T13:23:24;28.50;59.20
37874;DHT22;23709;48.078;11.684;2023-07-20T13:25:56;28.40;60.10
37874;DHT22;23709;48.078;11.684;2023-07-20T13:28:28;28.70;58.80
37874;DHT22;23709;48.078;11.684;2023-07-20T13:31:01;28.90;58.90
37874;DHT22;23709;48.078;11.684;2023-07-20T13:33:33;28.50;58.80
37874;DHT22;23709;48.078;11.684;2023-07-20T13:36:10;28.20;59.40
37874;DHT22;23709;48.078;11.684;2023-07-20T13:38:42;28.30;60.90
37874;DHT22;23709;48.078;11.684;2023-07-20T13:41:14;28.70;59.10
37874;DHT22;23709;48.078;11.684;2023-07-20T13:43:50;28.60;59.00
37874;DHT22;23709;48.078;11.684;2023-07-20T13:46:24;28.40;58.70
37874;DHT22;23709;48.078;11.684;2023-07-20T13:48:59;28.30;59.50
37874;DHT22;23709;48.078;11.684;2023-07-20T13:51:31;28.10;58.10
37874;DHT22;23709;48.078;11.684;2023-07-20T13:54:04;28.00;58.70
37874;DHT22;23709;48.078;11.684;2023-07-20T13:56:39;28.00;59.20
37874;DHT22;23709;48.078;11.684;2023-07-20T13:59:13;27.80;58.90
37874;DHT22;23709;48.078;11.684;2023-07-20T14:01:46;28.00;61.20
37874;DHT22;23709;48.078;11.684;2023-07-20T14:04:19;28.20;60.20
37874;DHT22;23709;48.078;11.684;2023-07-20T14:06:51;28.40;58.20
37874;DHT22;23709;48.078;11.684;2023-07-20T14:09:23;28.30;57.50
37874;DHT22;23709;48.078;11.684;2023-07-20T14:11:56;28.30;60.10
37874;DHT22;23709;48.078;11.684;2023-07-20T14:14:31;28.80;59.20
37874;DHT22;23709;48.078;11.684;2023-07-20T14:17:03;28.50;59.90
37874;DHT22;23709;48.078;11.684;2023-07-20T14:19:36;28.50;59.50
37874;DHT22;23709;48.078;11.684;2023-07-20T14:22:09;27.90;57.40
37874;DHT22;23709;48.078;11.684;2023-07-20T14:24:43;28.60;59.70
37874;DHT22;23709;48.078;11.684;2023-07-20T14:27:15;28.90;56.80
37874;DHT22;23709;48.078;11.684;2023-07-20T14:29:48;29.10;57.00
37874;DHT22;23709;48.078;11.684;2023-07-20T14:32:22;28.80;57.20
37874;DHT22;23709;48.078;11.684;2023-07-20T14:34:54;28.80;58.30
37874;DHT22;23709;48.078;11.684;2023-07-20T14:37:27;28.40;57.80
37874;DHT22;23709;48.078;11.684;2023-07-20T14:40:00;28.10;56.40
37874;DHT22;23709;48.078;11.684;2023-07-20T14:42:33;28.40;56.60
37874;DHT22;23709;48.078;11.684;2023-07-20T14:45:05;28.40;56.70
37874;DHT22;23709;48.078;11.684;2023-07-20T14:47:38;28.50;57.30
37874;DHT22;23709;48.078;11.684;2023-07-20T14:50:14;28.80;56.00
37874;DHT22;23709;48.078;11.684;2023-07-20T14:52:46;28.90;57.20
37874;DHT22;23709;48.078;11.684;2023-07-20T14:55:20;29.40;56.10
37874;DHT22;23709;48.078;11.684;2023-07-20T14:57:52;29.80;55.50
37874;DHT22;23709;48.078;11.684;2023-07-20T15:00:24;29.90;53.60
37874;DHT22;23709;48.078;11.684;2023-07-20T15:02:56;30.10;54.10
37874;DHT22;23709;48.078;11.684;2023-07-20T15:05:29;29.90;53.70
37874;DHT22;23709;48.078;11.684;2023-07-20T15:08:04;29.90;55.50
37874;DHT22;23709;48.078;11.684;2023-07-20T15:10:37;30.20;54.40
37874;DHT22;23709;48.078;11.684;2023-07-20T15:13:10;30.70;53.80
37874;DHT22;23709;48.078;11.684;2023-07-20T15:15:42;30.50;54.50
37874;DHT22;23709;48.078;11.684;2023-07-20T15:18:15;30.10;53.60
37874;DHT22;23709;48.078;11.684;2023-07-20T15:20:47;29.90;53.00
37874;DHT22;23709;48.078;11.684;2023-07-20T15:23:26;30.20;54.60
37874;DHT22;23709;48.078;11.684;2023-07-20T15:25:58;30.30;52.90
37874;DHT22;23709;48.078;11.684;2023-07-20T15:28:31;30.20;54.10
37874;DHT22;23709;48.078;11.684;2023-07-20T15:31:05;30.30;53.40
37874;DHT22;23709;48.078;11.684;2023-07-20T15:33:37;30.20;52.90
37874;DHT22;23709;48.078;11.684;2023-07-20T15:36:10;30.30;53.20
37874;DHT22;23709;48.078;11.684;2023-07-20T15:38:50;30.70;53.10
37874;DHT22;23709;48.078;11.684;2023-07-20T15:41:22;30.60;53.90
37874;DHT22;23709;48.078;11.684;2023-07-20T15:43:57;30.50;51.50
37874;DHT22;23709;48.078;11.684;2023-07-20T15:49:08;30.60;52.70
37874;DHT22;23709;48.078;11.684;2023-07-20T15:51:40;30.30;51.50
37874;DHT22;23709;48.078;11.684;2023-07-20T15:54:13;30.20;52.60
37874;DHT22;23709;48.078;11.684;2023-07-20T15:56:46;29.80;52.30
37874;DHT22;23709;48.078;11.684;2023-07-20T15:59:20;29.90;53.10
37874;DHT22;23709;48.078;11.684;2023-07-20T16:01:52;30.00;53.20
37874;DHT22;23709;48.078;11.684;2023-07-20T16:04:28;30.10;53.50
37874;DHT22;23709;48.078;11.684;2023-07-20T16:07:02;30.30;53.30
37874;DHT22;23709;48.078;11.684;2023-07-20T16:09:39;30.30;52.80
37874;DHT22;23709;48.078;11.684;2023-07-20T16:12:12;29.80;52.60
37874;DHT22;23709;48.078;11.684;2023-07-20T16:14:44;29.50;52.50
37874;DHT22;23709;48.078;11.684;2023-07-20T16:17:19;29.60;54.20